Salida, CO (81201)

10:40 AM MST on February 24, 2017 (GMT -0700)
Maysville, East Slope Monarch Pass | | Change Station

Elev 8397 ft 38.54 °N, 106.19 °W | Updated 2 seconds ago

Clear
Clear
21.1 °F
Feels Like 8 °F
N
14.0
Wind Variable Wind from North
Gusts 14.0 mph

Today
High -- | Low -- °F
--% Chance of Precip.
Yesterday
High -- | Low -- °F
Precip. -- in
Pressure 29.87 in
Visibility 10.0 miles
Clouds Clear
Windchill 8 °F
Dew Point 6 °F
Humidity 52%
Rainfall 0.00 in
Snow Depth Not available.
6:42 AM 5:52 PM
Waning Crescent, 4% visible
METAR KANK 241735Z AUTO 27016G22KT 10SM CLR M01/M19 A2987 RMK AO1 T10121189
Pressure 29.87 in
Visibility 10.0 miles
Clouds Clear
Windchill 8 °F
Dew Point 6 °F
Humidity 52%
Rainfall 0.00 in
Snow Depth Not available.
6:42 AM 5:52 PM
Waning Crescent, 4% visible
METAR KANK 241735Z AUTO 27016G22KT 10SM CLR M01/M19 A2987 RMK AO1 T10121189

Get Your Daily Forecast Email!

Thanks for signing up!

Be on the lookout for a verification email in your inbox.

You'll start receiving the daily forecast at 8 AM.

×

10-Day Weather Forecast

Almanac

Astronomy

Feb. 24, 2017 Rise Set
Actual Time
Civil Twilight
Nautical Twilight
Astronomical Twilight
Moon
Length of Visible Light
Length of Day
Tomorrow will be .
, % of the Moon is Illuminated

Today's Extremes

State Highs State Lows

Community

WunderPhotos

Upload Photos

1,962,540 photos uploaded!

WunderBlog® & News

Nearby

Air Quality

  Air Quality AQ Index Pollutant
Not available.

Snow Depth

Station Depth Elevation

Earthquake Activity

City Distance Mag. Time & Date
Minimum magnitude displayed is 2.5.

Coastal Water Temperatures

Place Temperature

Stations

Nearby Weather Stations

Station Location Temp. Windchill Dew Point Humidity Wind Precip. Elev Updated Type
                   

Watches & Warnings

There are currently no watches in effect.